Villa Mazan, Argentina
Current Conditions -  °F | °C
As of 12:00 AM on Wednesday 22 Oct 2014 (Local Time) from SANT Reporting Station
Clear Clear  
Wind Chill: 73°   Ceiling: Unl
Heat Index: 73°   Visibility: 5mi
Dew Point: 64°   Wind: 7mph
Humidity: 73%   Direction: 360°N
Pressure: 29.97"   Gusts: NA
Location:  28.67°S, 66.57°W
Report Text: SANT 220300Z 36006KT 8000 NSC 23/18 Q1015
Loading
Personal Weather Stations






























Interactive Weather Map
Tropical Storm Tracking
New forecast layout! Learn more

10-Day Weather Forecast

Advertisements
Track Severe Weather on mobile